sensor_id;sensor_type;location;lat;lon;timestamp;temperature;humidity
13245;DHT22;6689;53.400;12.486;2023-03-23T00:01:02;12.10;99.90
13245;DHT22;6689;53.400;12.486;2023-03-23T00:03:29;12.00;99.90
13245;DHT22;6689;53.400;12.486;2023-03-23T00:05:58;12.10;99.90
13245;DHT22;6689;53.400;12.486;2023-03-23T00:08:33;12.10;99.90
13245;DHT22;6689;53.400;12.486;2023-03-23T00:11:03;12.10;99.90
13245;DHT22;6689;53.400;12.486;2023-03-23T00:13:31;12.10;99.90
13245;DHT22;6689;53.400;12.486;2023-03-23T00:15:58;12.10;99.90
13245;DHT22;6689;53.400;12.486;2023-03-23T00:18:26;12.10;99.90
13245;DHT22;6689;53.400;12.486;2023-03-23T00:20:55;12.10;99.90
13245;DHT22;6689;53.400;12.486;2023-03-23T00:23:24;12.00;99.90
13245;DHT22;6689;53.400;12.486;2023-03-23T00:25:56;12.10;99.90
13245;DHT22;6689;53.400;12.486;2023-03-23T00:28:24;12.00;99.90
13245;DHT22;6689;53.400;12.486;2023-03-23T00:30:57;12.00;99.90
13245;DHT22;6689;53.400;12.486;2023-03-23T00:33:27;12.00;99.90
13245;DHT22;6689;53.400;12.486;2023-03-23T00:35:55;12.00;99.90
13245;DHT22;6689;53.400;12.486;2023-03-23T00:38:24;12.00;99.90
13245;DHT22;6689;53.400;12.486;2023-03-23T00:40:53;12.00;99.90
13245;DHT22;6689;53.400;12.486;2023-03-23T00:43:23;12.00;99.90
13245;DHT22;6689;53.400;12.486;2023-03-23T00:45:55;12.00;99.90
13245;DHT22;6689;53.400;12.486;2023-03-23T00:48:23;12.00;99.90
13245;DHT22;6689;53.400;12.486;2023-03-23T00:50:51;12.00;99.90
13245;DHT22;6689;53.400;12.486;2023-03-23T00:53:19;12.00;99.90
13245;DHT22;6689;53.400;12.486;2023-03-23T00:55:48;12.00;99.90
13245;DHT22;6689;53.400;12.486;2023-03-23T00:58:16;12.00;99.90
13245;DHT22;6689;53.400;12.486;2023-03-23T01:00:44;12.00;99.90
13245;DHT22;6689;53.400;12.486;2023-03-23T01:03:11;11.90;99.90
13245;DHT22;6689;53.400;12.486;2023-03-23T01:05:44;12.00;99.90
13245;DHT22;6689;53.400;12.486;2023-03-23T01:08:13;11.90;99.90
13245;DHT22;6689;53.400;12.486;2023-03-23T01:10:42;11.90;99.90
13245;DHT22;6689;53.400;12.486;2023-03-23T01:13:09;11.90;99.90
13245;DHT22;6689;53.400;12.486;2023-03-23T01:15:39;11.90;99.90
13245;DHT22;6689;53.400;12.486;2023-03-23T01:18:08;11.90;99.90
13245;DHT22;6689;53.400;12.486;2023-03-23T01:20:36;11.90;99.90
13245;DHT22;6689;53.400;12.486;2023-03-23T01:23:04;11.90;99.90
13245;DHT22;6689;53.400;12.486;2023-03-23T01:25:35;11.90;99.90
13245;DHT22;6689;53.400;12.486;2023-03-23T01:28:03;11.80;99.90
13245;DHT22;6689;53.400;12.486;2023-03-23T01:30:32;11.80;99.90
13245;DHT22;6689;53.400;12.486;2023-03-23T01:33:00;11.80;99.90
13245;DHT22;6689;53.400;12.486;2023-03-23T01:35:28;11.70;99.90
13245;DHT22;6689;53.400;12.486;2023-03-23T01:37:55;11.70;99.90
13245;DHT22;6689;53.400;12.486;2023-03-23T01:40:26;11.70;99.90
13245;DHT22;6689;53.400;12.486;2023-03-23T01:42:54;11.70;99.90
13245;DHT22;6689;53.400;12.486;2023-03-23T01:45:25;11.60;99.90
13245;DHT22;6689;53.400;12.486;2023-03-23T01:48:01;11.50;99.90
13245;DHT22;6689;53.400;12.486;2023-03-23T01:50:33;11.40;1.00
13245;DHT22;6689;53.400;12.486;2023-03-23T01:53:05;11.40;1.00
13245;DHT22;6689;53.400;12.486;2023-03-23T01:55:36;11.30;1.00
13245;DHT22;6689;53.400;12.486;2023-03-23T01:58:06;11.30;1.00
13245;DHT22;6689;53.400;12.486;2023-03-23T02:00:33;11.30;1.00
13245;DHT22;6689;53.400;12.486;2023-03-23T02:03:04;11.30;1.00
13245;DHT22;6689;53.400;12.486;2023-03-23T02:05:34;11.30;1.00
13245;DHT22;6689;53.400;12.486;2023-03-23T02:08:04;11.30;1.00
13245;DHT22;6689;53.400;12.486;2023-03-23T02:10:35;11.30;1.00
13245;DHT22;6689;53.400;12.486;2023-03-23T02:13:04;11.20;1.00
13245;DHT22;6689;53.400;12.486;2023-03-23T02:15:44;11.30;1.00
13245;DHT22;6689;53.400;12.486;2023-03-23T02:27:06;11.10;1.00
13245;DHT22;6689;53.400;12.486;2023-03-23T02:30:14;11.10;1.00
13245;DHT22;6689;53.400;12.486;2023-03-23T02:33:13;11.10;1.00
13245;DHT22;6689;53.400;12.486;2023-03-23T02:35:46;11.10;1.00
13245;DHT22;6689;53.400;12.486;2023-03-23T02:38:19;11.10;1.00
13245;DHT22;6689;53.400;12.486;2023-03-23T02:40:50;11.10;1.00
13245;DHT22;6689;53.400;12.486;2023-03-23T02:43:21;11.10;1.00
13245;DHT22;6689;53.400;12.486;2023-03-23T02:45:50;11.10;1.00
13245;DHT22;6689;53.400;12.486;2023-03-23T02:48:24;11.10;1.00
13245;DHT22;6689;53.400;12.486;2023-03-23T02:50:54;11.10;1.00
13245;DHT22;6689;53.400;12.486;2023-03-23T02:53:24;11.00;7.90
13245;DHT22;6689;53.400;12.486;2023-03-23T02:55:54;11.00;17.50
13245;DHT22;6689;53.400;12.486;2023-03-23T02:58:24;11.00;4.80
13245;DHT22;6689;53.400;12.486;2023-03-23T03:00:51;11.10;12.40
13245;DHT22;6689;53.400;12.486;2023-03-23T03:03:21;11.00;15.20
13245;DHT22;6689;53.400;12.486;2023-03-23T03:05:55;11.10;1.00
13245;DHT22;6689;53.400;12.486;2023-03-23T03:08:30;11.00;1.00
13245;DHT22;6689;53.400;12.486;2023-03-23T03:11:05;11.10;20.00
13245;DHT22;6689;53.400;12.486;2023-03-23T03:13:39;11.00;7.40
13245;DHT22;6689;53.400;12.486;2023-03-23T03:16:13;11.00;12.20
13245;DHT22;6689;53.400;12.486;2023-03-23T03:18:46;10.90;26.40
13245;DHT22;6689;53.400;12.486;2023-03-23T03:21:18;11.00;27.90
13245;DHT22;6689;53.400;12.486;2023-03-23T03:23:54;11.00;51.10
13245;DHT22;6689;53.400;12.486;2023-03-23T03:26:25;10.90;65.00
13245;DHT22;6689;53.400;12.486;2023-03-23T03:28:54;10.90;72.80
13245;DHT22;6689;53.400;12.486;2023-03-23T03:31:25;10.90;97.80
13245;DHT22;6689;53.400;12.486;2023-03-23T03:33:55;10.90;98.70
13245;DHT22;6689;53.400;12.486;2023-03-23T03:36:26;10.90;99.90
13245;DHT22;6689;53.400;12.486;2023-03-23T03:38:54;10.80;99.90
13245;DHT22;6689;53.400;12.486;2023-03-23T03:41:23;10.80;99.90
13245;DHT22;6689;53.400;12.486;2023-03-23T03:43:50;10.90;99.90
13245;DHT22;6689;53.400;12.486;2023-03-23T03:46:17;10.90;99.90
13245;DHT22;6689;53.400;12.486;2023-03-23T03:48:45;10.80;99.90
13245;DHT22;6689;53.400;12.486;2023-03-23T03:51:13;10.80;99.90
13245;DHT22;6689;53.400;12.486;2023-03-23T03:53:41;10.80;99.90
13245;DHT22;6689;53.400;12.486;2023-03-23T03:56:09;10.90;99.90
13245;DHT22;6689;53.400;12.486;2023-03-23T03:58:36;10.90;99.90
13245;DHT22;6689;53.400;12.486;2023-03-23T04:01:04;10.80;99.90
13245;DHT22;6689;53.400;12.486;2023-03-23T04:03:32;10.80;99.90
13245;DHT22;6689;53.400;12.486;2023-03-23T04:06:02;10.80;99.90
13245;DHT22;6689;53.400;12.486;2023-03-23T04:08:31;10.80;99.90
13245;DHT22;6689;53.400;12.486;2023-03-23T04:10:58;10.80;99.90
13245;DHT22;6689;53.400;12.486;2023-03-23T04:13:26;10.80;99.90
13245;DHT22;6689;53.400;12.486;2023-03-23T04:15:53;10.80;99.90
13245;DHT22;6689;53.400;12.486;2023-03-23T04:18:21;10.80;99.90
13245;DHT22;6689;53.400;12.486;2023-03-23T04:20:49;10.80;99.90
13245;DHT22;6689;53.400;12.486;2023-03-23T04:23:18;10.80;99.90
13245;DHT22;6689;53.400;12.486;2023-03-23T04:25:47;10.80;99.90
13245;DHT22;6689;53.400;12.486;2023-03-23T04:28:15;10.80;99.90
13245;DHT22;6689;53.400;12.486;2023-03-23T04:30:45;10.80;99.90
13245;DHT22;6689;53.400;12.486;2023-03-23T04:33:14;10.80;99.90
13245;DHT22;6689;53.400;12.486;2023-03-23T04:35:43;10.80;99.90
13245;DHT22;6689;53.400;12.486;2023-03-23T04:38:12;10.80;99.90
13245;DHT22;6689;53.400;12.486;2023-03-23T04:40:41;10.80;99.90
13245;DHT22;6689;53.400;12.486;2023-03-23T04:43:11;10.80;99.90
13245;DHT22;6689;53.400;12.486;2023-03-23T04:45:40;10.80;99.90
13245;DHT22;6689;53.400;12.486;2023-03-23T04:48:11;10.80;99.90
13245;DHT22;6689;53.400;12.486;2023-03-23T04:50:39;10.80;99.90
13245;DHT22;6689;53.400;12.486;2023-03-23T04:53:07;10.80;99.90
13245;DHT22;6689;53.400;12.486;2023-03-23T04:55:36;10.70;99.90
13245;DHT22;6689;53.400;12.486;2023-03-23T04:58:04;10.80;99.90
13245;DHT22;6689;53.400;12.486;2023-03-23T05:00:33;10.80;99.90
13245;DHT22;6689;53.400;12.486;2023-03-23T05:03:01;10.70;99.90
13245;DHT22;6689;53.400;12.486;2023-03-23T05:05:28;10.80;99.90
13245;DHT22;6689;53.400;12.486;2023-03-23T05:07:57;10.80;99.90
13245;DHT22;6689;53.400;12.486;2023-03-23T05:10:24;10.80;99.90
13245;DHT22;6689;53.400;12.486;2023-03-23T05:12:53;10.80;99.90
13245;DHT22;6689;53.400;12.486;2023-03-23T05:15:20;10.70;99.90
13245;DHT22;6689;53.400;12.486;2023-03-23T05:17:51;10.80;99.90
13245;DHT22;6689;53.400;12.486;2023-03-23T05:20:18;10.80;99.90
13245;DHT22;6689;53.400;12.486;2023-03-23T05:22:48;10.80;1.00
13245;DHT22;6689;53.400;12.486;2023-03-23T05:25:16;10.80;1.00
13245;DHT22;6689;53.400;12.486;2023-03-23T05:27:45;10.80;1.00
13245;DHT22;6689;53.400;12.486;2023-03-23T05:30:15;10.80;1.00
13245;DHT22;6689;53.400;12.486;2023-03-23T05:32:42;10.90;1.00
13245;DHT22;6689;53.400;12.486;2023-03-23T05:35:12;10.80;1.00
13245;DHT22;6689;53.400;12.486;2023-03-23T05:37:41;10.80;1.00
13245;DHT22;6689;53.400;12.486;2023-03-23T05:40:10;10.90;1.00
13245;DHT22;6689;53.400;12.486;2023-03-23T05:42:39;10.90;1.00
13245;DHT22;6689;53.400;12.486;2023-03-23T05:45:09;10.90;1.00
13245;DHT22;6689;53.400;12.486;2023-03-23T05:47:37;10.90;1.00
13245;DHT22;6689;53.400;12.486;2023-03-23T05:50:05;10.80;1.00
13245;DHT22;6689;53.400;12.486;2023-03-23T05:52:34;10.90;1.00
13245;DHT22;6689;53.400;12.486;2023-03-23T05:55:03;10.90;1.00
13245;DHT22;6689;53.400;12.486;2023-03-23T05:57:31;10.90;1.00
13245;DHT22;6689;53.400;12.486;2023-03-23T05:59:59;10.90;1.00
13245;DHT22;6689;53.400;12.486;2023-03-23T06:02:31;10.90;1.00
13245;DHT22;6689;53.400;12.486;2023-03-23T06:04:59;10.90;1.00
13245;DHT22;6689;53.400;12.486;2023-03-23T06:07:29;10.90;1.00
13245;DHT22;6689;53.400;12.486;2023-03-23T06:09:58;10.90;1.00
13245;DHT22;6689;53.400;12.486;2023-03-23T06:12:25;10.90;1.00
13245;DHT22;6689;53.400;12.486;2023-03-23T06:14:53;10.90;1.00
13245;DHT22;6689;53.400;12.486;2023-03-23T06:17:21;10.90;1.00
13245;DHT22;6689;53.400;12.486;2023-03-23T06:19:49;10.80;1.00
13245;DHT22;6689;53.400;12.486;2023-03-23T06:22:16;10.90;1.00
13245;DHT22;6689;53.400;12.486;2023-03-23T06:24:43;10.90;1.00
13245;DHT22;6689;53.400;12.486;2023-03-23T06:27:12;11.00;1.00
13245;DHT22;6689;53.400;12.486;2023-03-23T06:29:42;11.00;1.00
13245;DHT22;6689;53.400;12.486;2023-03-23T06:32:13;11.00;1.00
13245;DHT22;6689;53.400;12.486;2023-03-23T06:34:41;11.00;99.90
13245;DHT22;6689;53.400;12.486;2023-03-23T06:37:10;11.00;99.90
13245;DHT22;6689;53.400;12.486;2023-03-23T06:39:38;11.00;99.90
13245;DHT22;6689;53.400;12.486;2023-03-23T06:42:09;11.00;99.90
13245;DHT22;6689;53.400;12.486;2023-03-23T06:44:39;11.10;99.90
13245;DHT22;6689;53.400;12.486;2023-03-23T06:47:06;11.10;99.90
13245;DHT22;6689;53.400;12.486;2023-03-23T06:49:34;11.10;99.90
13245;DHT22;6689;53.400;12.486;2023-03-23T06:52:02;11.10;99.90
13245;DHT22;6689;53.400;12.486;2023-03-23T06:54:29;11.10;99.90
13245;DHT22;6689;53.400;12.486;2023-03-23T06:56:57;11.10;99.90
13245;DHT22;6689;53.400;12.486;2023-03-23T06:59:24;11.20;99.90
13245;DHT22;6689;53.400;12.486;2023-03-23T07:01:53;11.20;99.90
13245;DHT22;6689;53.400;12.486;2023-03-23T07:04:20;11.30;99.90
13245;DHT22;6689;53.400;12.486;2023-03-23T07:06:49;11.30;99.90
13245;DHT22;6689;53.400;12.486;2023-03-23T07:09:16;11.40;99.90
13245;DHT22;6689;53.400;12.486;2023-03-23T07:11:43;11.40;99.90
13245;DHT22;6689;53.400;12.486;2023-03-23T07:14:13;11.40;99.90
13245;DHT22;6689;53.400;12.486;2023-03-23T07:16:41;11.40;99.90
13245;DHT22;6689;53.400;12.486;2023-03-23T07:19:10;11.40;99.90
13245;DHT22;6689;53.400;12.486;2023-03-23T07:21:38;11.40;99.90
13245;DHT22;6689;53.400;12.486;2023-03-23T07:24:09;11.50;99.90
13245;DHT22;6689;53.400;12.486;2023-03-23T07:26:37;11.50;99.90
13245;DHT22;6689;53.400;12.486;2023-03-23T07:29:04;11.50;99.90
13245;DHT22;6689;53.400;12.486;2023-03-23T07:31:33;11.50;99.90
13245;DHT22;6689;53.400;12.486;2023-03-23T07:34:01;11.50;99.90
13245;DHT22;6689;53.400;12.486;2023-03-23T07:36:30;11.50;99.90
13245;DHT22;6689;53.400;12.486;2023-03-23T07:38:58;11.50;99.90
13245;DHT22;6689;53.400;12.486;2023-03-23T07:41:26;11.50;99.90
13245;DHT22;6689;53.400;12.486;2023-03-23T07:43:54;11.60;99.90
13245;DHT22;6689;53.400;12.486;2023-03-23T07:46:21;11.70;99.90
13245;DHT22;6689;53.400;12.486;2023-03-23T07:48:49;11.70;99.90
13245;DHT22;6689;53.400;12.486;2023-03-23T07:51:17;11.70;99.90
13245;DHT22;6689;53.400;12.486;2023-03-23T07:53:45;11.70;99.90
13245;DHT22;6689;53.400;12.486;2023-03-23T07:56:13;11.90;99.90
13245;DHT22;6689;53.400;12.486;2023-03-23T07:58:44;11.90;99.90
13245;DHT22;6689;53.400;12.486;2023-03-23T08:01:12;11.90;99.90
13245;DHT22;6689;53.400;12.486;2023-03-23T08:03:40;12.00;99.90
13245;DHT22;6689;53.400;12.486;2023-03-23T08:06:08;12.00;99.90
13245;DHT22;6689;53.400;12.486;2023-03-23T08:08:37;12.00;99.90
13245;DHT22;6689;53.400;12.486;2023-03-23T08:11:07;12.10;99.90
13245;DHT22;6689;53.400;12.486;2023-03-23T08:13:35;12.20;99.90
13245;DHT22;6689;53.400;12.486;2023-03-23T08:16:02;12.20;99.90
13245;DHT22;6689;53.400;12.486;2023-03-23T08:18:31;12.30;99.90
13245;DHT22;6689;53.400;12.486;2023-03-23T08:21:00;12.30;99.90
13245;DHT22;6689;53.400;12.486;2023-03-23T08:23:30;12.40;86.60
13245;DHT22;6689;53.400;12.486;2023-03-23T08:25:59;12.50;25.40
13245;DHT22;6689;53.400;12.486;2023-03-23T08:28:28;12.60;40.20
13245;DHT22;6689;53.400;12.486;2023-03-23T08:30:55;12.80;1.00
13245;DHT22;6689;53.400;12.486;2023-03-23T08:33:22;13.10;1.00
13245;DHT22;6689;53.400;12.486;2023-03-23T08:35:55;13.20;1.00
13245;DHT22;6689;53.400;12.486;2023-03-23T08:38:23;13.40;1.00
13245;DHT22;6689;53.400;12.486;2023-03-23T08:40:50;13.60;1.00
13245;DHT22;6689;53.400;12.486;2023-03-23T08:43:18;14.30;1.00
13245;DHT22;6689;53.400;12.486;2023-03-23T08:45:47;14.60;99.90
13245;DHT22;6689;53.400;12.486;2023-03-23T08:48:14;15.10;99.90
13245;DHT22;6689;53.400;12.486;2023-03-23T08:50:42;15.30;99.90
13245;DHT22;6689;53.400;12.486;2023-03-23T08:53:10;14.90;99.90
13245;DHT22;6689;53.400;12.486;2023-03-23T08:55:37;15.60;99.90
13245;DHT22;6689;53.400;12.486;2023-03-23T08:58:08;15.10;99.90
13245;DHT22;6689;53.400;12.486;2023-03-23T09:00:36;14.90;99.90
13245;DHT22;6689;53.400;12.486;2023-03-23T09:03:05;14.70;99.90
13245;DHT22;6689;53.400;12.486;2023-03-23T09:05:32;14.40;99.90
13245;DHT22;6689;53.400;12.486;2023-03-23T09:08:00;14.30;99.90
13245;DHT22;6689;53.400;12.486;2023-03-23T09:10:29;14.30;99.90
13245;DHT22;6689;53.400;12.486;2023-03-23T09:12:57;14.50;99.90
13245;DHT22;6689;53.400;12.486;2023-03-23T09:15:25;14.50;99.90
13245;DHT22;6689;53.400;12.486;2023-03-23T09:17:53;14.60;99.90
13245;DHT22;6689;53.400;12.486;2023-03-23T09:20:26;14.60;99.90
13245;DHT22;6689;53.400;12.486;2023-03-23T09:22:55;14.50;99.90
13245;DHT22;6689;53.400;12.486;2023-03-23T09:25:25;14.30;99.90
13245;DHT22;6689;53.400;12.486;2023-03-23T09:27:54;14.20;99.90
13245;DHT22;6689;53.400;12.486;2023-03-23T09:30:23;14.10;99.90
13245;DHT22;6689;53.400;12.486;2023-03-23T09:32:52;14.00;99.90
13245;DHT22;6689;53.400;12.486;2023-03-23T09:35:20;14.00;99.90
13245;DHT22;6689;53.400;12.486;2023-03-23T09:37:51;14.00;99.90
13245;DHT22;6689;53.400;12.486;2023-03-23T09:40:21;14.10;99.90
13245;DHT22;6689;53.400;12.486;2023-03-23T09:43:05;14.00;99.90
13245;DHT22;6689;53.400;12.486;2023-03-23T09:45:37;13.90;99.90
13245;DHT22;6689;53.400;12.486;2023-03-23T09:48:26;13.80;99.90
13245;DHT22;6689;53.400;12.486;2023-03-23T09:51:01;13.70;99.90
13245;DHT22;6689;53.400;12.486;2023-03-23T09:53:36;13.60;99.90
13245;DHT22;6689;53.400;12.486;2023-03-23T09:56:14;13.50;99.90
13245;DHT22;6689;53.400;12.486;2023-03-23T09:58:49;13.50;99.90
13245;DHT22;6689;53.400;12.486;2023-03-23T10:01:22;13.70;99.90
13245;DHT22;6689;53.400;12.486;2023-03-23T10:03:55;13.90;99.90
13245;DHT22;6689;53.400;12.486;2023-03-23T10:06:26;14.10;99.90
13245;DHT22;6689;53.400;12.486;2023-03-23T10:09:00;14.20;99.90
13245;DHT22;6689;53.400;12.486;2023-03-23T10:11:37;14.30;99.90
13245;DHT22;6689;53.400;12.486;2023-03-23T10:14:21;14.20;99.90
13245;DHT22;6689;53.400;12.486;2023-03-23T10:17:00;14.20;99.90
13245;DHT22;6689;53.400;12.486;2023-03-23T10:19:35;14.40;99.90
13245;DHT22;6689;53.400;12.486;2023-03-23T10:22:09;14.30;99.90
13245;DHT22;6689;53.400;12.486;2023-03-23T10:24:43;14.30;99.90
13245;DHT22;6689;53.400;12.486;2023-03-23T10:27:19;14.40;99.90
13245;DHT22;6689;53.400;12.486;2023-03-23T10:29:53;14.30;99.90
13245;DHT22;6689;53.400;12.486;2023-03-23T10:32:36;14.30;99.90
13245;DHT22;6689;53.400;12.486;2023-03-23T10:35:11;14.20;99.90
13245;DHT22;6689;53.400;12.486;2023-03-23T10:37:45;14.30;99.90
13245;DHT22;6689;53.400;12.486;2023-03-23T10:40:17;14.30;99.90
13245;DHT22;6689;53.400;12.486;2023-03-23T10:42:46;14.40;99.90
13245;DHT22;6689;53.400;12.486;2023-03-23T10:45:17;14.50;99.90
13245;DHT22;6689;53.400;12.486;2023-03-23T10:47:48;14.50;99.90
13245;DHT22;6689;53.400;12.486;2023-03-23T10:50:21;14.40;99.90
13245;DHT22;6689;53.400;12.486;2023-03-23T10:52:50;14.40;99.90
13245;DHT22;6689;53.400;12.486;2023-03-23T10:55:21;14.30;99.90
13245;DHT22;6689;53.400;12.486;2023-03-23T10:58:00;14.30;99.90
13245;DHT22;6689;53.400;12.486;2023-03-23T11:00:28;14.30;99.90
13245;DHT22;6689;53.400;12.486;2023-03-23T11:03:01;14.10;99.90
13245;DHT22;6689;53.400;12.486;2023-03-23T11:05:35;14.20;99.90
13245;DHT22;6689;53.400;12.486;2023-03-23T11:08:11;14.30;99.90
13245;DHT22;6689;53.400;12.486;2023-03-23T11:10:42;14.40;99.90
13245;DHT22;6689;53.400;12.486;2023-03-23T11:13:13;14.40;99.90
13245;DHT22;6689;53.400;12.486;2023-03-23T11:15:43;14.50;99.90
13245;DHT22;6689;53.400;12.486;2023-03-23T11:18:22;14.50;99.90
13245;DHT22;6689;53.400;12.486;2023-03-23T11:20:52;14.40;99.90
13245;DHT22;6689;53.400;12.486;2023-03-23T11:23:24;14.50;99.90
13245;DHT22;6689;53.400;12.486;2023-03-23T11:25:57;14.40;99.90
13245;DHT22;6689;53.400;12.486;2023-03-23T11:28:31;14.30;99.90
13245;DHT22;6689;53.400;12.486;2023-03-23T11:31:02;14.30;99.90
13245;DHT22;6689;53.400;12.486;2023-03-23T11:33:35;14.20;99.90
13245;DHT22;6689;53.400;12.486;2023-03-23T11:36:06;14.10;99.90
13245;DHT22;6689;53.400;12.486;2023-03-23T11:38:34;14.00;99.90
13245;DHT22;6689;53.400;12.486;2023-03-23T11:41:10;13.80;99.90
13245;DHT22;6689;53.400;12.486;2023-03-23T11:43:41;13.70;99.90
13245;DHT22;6689;53.400;12.486;2023-03-23T11:46:18;13.60;1.00
13245;DHT22;6689;53.400;12.486;2023-03-23T11:48:53;13.40;1.00
13245;DHT22;6689;53.400;12.486;2023-03-23T11:51:28;13.40;99.90
13245;DHT22;6689;53.400;12.486;2023-03-23T11:53:58;13.30;99.90
13245;DHT22;6689;53.400;12.486;2023-03-23T11:56:32;13.10;99.90
13245;DHT22;6689;53.400;12.486;2023-03-23T11:59:01;13.00;99.90
13245;DHT22;6689;53.400;12.486;2023-03-23T12:01:46;13.00;99.90
13245;DHT22;6689;53.400;12.486;2023-03-23T12:10:19;13.20;99.90
13245;DHT22;6689;53.400;12.486;2023-03-23T12:12:54;13.20;99.90
13245;DHT22;6689;53.400;12.486;2023-03-23T12:15:27;13.30;99.90
13245;DHT22;6689;53.400;12.486;2023-03-23T12:18:04;13.50;99.90
13245;DHT22;6689;53.400;12.486;2023-03-23T12:20:43;13.60;99.90
13245;DHT22;6689;53.400;12.486;2023-03-23T12:23:23;13.80;99.90
13245;DHT22;6689;53.400;12.486;2023-03-23T12:26:21;14.10;99.90
13245;DHT22;6689;53.400;12.486;2023-03-23T12:29:15;14.10;99.90
13245;DHT22;6689;53.400;12.486;2023-03-23T12:31:53;14.10;99.90
13245;DHT22;6689;53.400;12.486;2023-03-23T12:34:30;14.00;99.90
13245;DHT22;6689;53.400;12.486;2023-03-23T12:37:28;13.90;99.90
13245;DHT22;6689;53.400;12.486;2023-03-23T12:40:23;13.80;99.90
13245;DHT22;6689;53.400;12.486;2023-03-23T12:42:56;13.80;99.90
13245;DHT22;6689;53.400;12.486;2023-03-23T12:45:48;13.60;99.90
13245;DHT22;6689;53.400;12.486;2023-03-23T12:48:22;13.60;99.90
13245;DHT22;6689;53.400;12.486;2023-03-23T12:51:08;13.50;99.90
13245;DHT22;6689;53.400;12.486;2023-03-23T12:53:41;13.20;99.90
13245;DHT22;6689;53.400;12.486;2023-03-23T12:56:14;13.20;99.90
13245;DHT22;6689;53.400;12.486;2023-03-23T12:58:48;13.10;99.90
13245;DHT22;6689;53.400;12.486;2023-03-23T13:01:20;13.00;99.90
13245;DHT22;6689;53.400;12.486;2023-03-23T13:03:51;13.00;99.90
13245;DHT22;6689;53.400;12.486;2023-03-23T13:06:23;12.80;99.90
13245;DHT22;6689;53.400;12.486;2023-03-23T13:08:56;12.80;99.90
13245;DHT22;6689;53.400;12.486;2023-03-23T13:11:30;12.90;99.90
13245;DHT22;6689;53.400;12.486;2023-03-23T13:14:08;12.90;99.90
13245;DHT22;6689;53.400;12.486;2023-03-23T13:16:47;13.00;99.90
13245;DHT22;6689;53.400;12.486;2023-03-23T13:19:22;13.00;99.90
13245;DHT22;6689;53.400;12.486;2023-03-23T13:21:57;13.00;99.90
13245;DHT22;6689;53.400;12.486;2023-03-23T13:24:29;13.10;99.90
13245;DHT22;6689;53.400;12.486;2023-03-23T13:26:59;13.20;99.90
13245;DHT22;6689;53.400;12.486;2023-03-23T13:29:27;13.00;99.90
13245;DHT22;6689;53.400;12.486;2023-03-23T13:32:10;13.10;99.90
13245;DHT22;6689;53.400;12.486;2023-03-23T13:34:39;13.20;99.90
13245;DHT22;6689;53.400;12.486;2023-03-23T13:37:12;13.20;99.90
13245;DHT22;6689;53.400;12.486;2023-03-23T13:39:49;13.20;99.90
13245;DHT22;6689;53.400;12.486;2023-03-23T13:42:20;13.10;99.90
13245;DHT22;6689;53.400;12.486;2023-03-23T13:45:19;13.10;99.90
13245;DHT22;6689;53.400;12.486;2023-03-23T13:47:48;13.20;99.90
13245;DHT22;6689;53.400;12.486;2023-03-23T13:50:27;13.20;99.90
13245;DHT22;6689;53.400;12.486;2023-03-23T13:52:59;13.10;99.90
13245;DHT22;6689;53.400;12.486;2023-03-23T13:55:41;13.20;99.90
13245;DHT22;6689;53.400;12.486;2023-03-23T13:58:21;13.10;99.90
13245;DHT22;6689;53.400;12.486;2023-03-23T14:01:01;13.10;99.90
13245;DHT22;6689;53.400;12.486;2023-03-23T14:03:36;13.10;99.90
13245;DHT22;6689;53.400;12.486;2023-03-23T14:06:06;13.10;99.90
13245;DHT22;6689;53.400;12.486;2023-03-23T14:08:40;13.10;99.90
13245;DHT22;6689;53.400;12.486;2023-03-23T14:11:14;13.10;99.90
13245;DHT22;6689;53.400;12.486;2023-03-23T14:13:50;13.10;99.90
13245;DHT22;6689;53.400;12.486;2023-03-23T14:16:20;13.10;99.90
13245;DHT22;6689;53.400;12.486;2023-03-23T14:18:52;13.20;99.90
13245;DHT22;6689;53.400;12.486;2023-03-23T14:21:33;13.20;99.90
13245;DHT22;6689;53.400;12.486;2023-03-23T14:24:02;13.20;99.90
13245;DHT22;6689;53.400;12.486;2023-03-23T14:26:33;13.10;99.90
13245;DHT22;6689;53.400;12.486;2023-03-23T14:29:03;13.10;99.90
13245;DHT22;6689;53.400;12.486;2023-03-23T14:31:32;13.20;99.90
13245;DHT22;6689;53.400;12.486;2023-03-23T14:34:04;13.10;99.90
13245;DHT22;6689;53.400;12.486;2023-03-23T14:36:38;13.30;99.90
13245;DHT22;6689;53.400;12.486;2023-03-23T14:39:12;13.30;99.90
13245;DHT22;6689;53.400;12.486;2023-03-23T14:41:40;13.20;99.90
13245;DHT22;6689;53.400;12.486;2023-03-23T14:44:13;13.30;99.90
13245;DHT22;6689;53.400;12.486;2023-03-23T14:46:42;13.30;99.90
13245;DHT22;6689;53.400;12.486;2023-03-23T14:49:14;13.20;99.90
13245;DHT22;6689;53.400;12.486;2023-03-23T14:51:53;13.30;99.90
13245;DHT22;6689;53.400;12.486;2023-03-23T14:54:25;13.10;99.90
13245;DHT22;6689;53.400;12.486;2023-03-23T14:56:53;13.10;99.90
13245;DHT22;6689;53.400;12.486;2023-03-23T14:59:21;13.10;99.90
13245;DHT22;6689;53.400;12.486;2023-03-23T15:01:50;12.90;99.90
13245;DHT22;6689;53.400;12.486;2023-03-23T15:04:22;13.00;99.90
13245;DHT22;6689;53.400;12.486;2023-03-23T15:06:56;12.80;99.90
13245;DHT22;6689;53.400;12.486;2023-03-23T15:09:25;12.90;99.90
13245;DHT22;6689;53.400;12.486;2023-03-23T15:11:56;12.90;99.90
13245;DHT22;6689;53.400;12.486;2023-03-23T15:14:26;12.80;99.90
13245;DHT22;6689;53.400;12.486;2023-03-23T15:16:56;12.80;99.90
13245;DHT22;6689;53.400;12.486;2023-03-23T15:19:32;12.80;99.90
13245;DHT22;6689;53.400;12.486;2023-03-23T15:22:05;12.80;99.90
13245;DHT22;6689;53.400;12.486;2023-03-23T15:24:36;12.70;99.90
13245;DHT22;6689;53.400;12.486;2023-03-23T15:27:12;12.70;99.90
13245;DHT22;6689;53.400;12.486;2023-03-23T15:29:47;12.70;99.90
13245;DHT22;6689;53.400;12.486;2023-03-23T15:32:21;12.60;99.90
13245;DHT22;6689;53.400;12.486;2023-03-23T15:34:50;12.60;99.90
13245;DHT22;6689;53.400;12.486;2023-03-23T15:37:21;12.60;99.90
13245;DHT22;6689;53.400;12.486;2023-03-23T15:39:49;12.60;99.90
13245;DHT22;6689;53.400;12.486;2023-03-23T15:42:22;12.60;99.90
13245;DHT22;6689;53.400;12.486;2023-03-23T15:44:56;12.60;99.90
13245;DHT22;6689;53.400;12.486;2023-03-23T15:47:36;12.60;99.90
13245;DHT22;6689;53.400;12.486;2023-03-23T15:50:13;12.50;99.90
13245;DHT22;6689;53.400;12.486;2023-03-23T15:52:40;12.40;99.90
13245;DHT22;6689;53.400;12.486;2023-03-23T15:55:22;12.40;99.90
13245;DHT22;6689;53.400;12.486;2023-03-23T15:57:50;12.40;99.90
13245;DHT22;6689;53.400;12.486;2023-03-23T16:00:22;12.40;99.90
13245;DHT22;6689;53.400;12.486;2023-03-23T16:02:53;12.60;99.90
13245;DHT22;6689;53.400;12.486;2023-03-23T16:05:23;12.60;99.90
13245;DHT22;6689;53.400;12.486;2023-03-23T16:07:50;12.70;99.90
13245;DHT22;6689;53.400;12.486;2023-03-23T16:10:19;12.70;99.90
13245;DHT22;6689;53.400;12.486;2023-03-23T16:12:48;12.70;99.90